Time;durP1;ratioP1;P1;durP2;ratioP2;P2;SDS_P1;SDS_P2;PMS_P1;PMS_P2;Temp;Humidity;BMP_temperature;BMP_pressure;BME280_temperature;BME280_humidity;BME280_pressure;Samples;Min_cycle;Max_cycle;Signal;HPM_P1;HPM_P2
2023/02/17 13:33:54;;;;;;;8.03;6.57;;;12.20;99.90;;;;;;5951769;22;4741903;-77
2023/02/17 13:36:36;;;;;;;8.00;6.27;;;12.20;99.90;;;;;;6147011;22;20162;-76
2023/02/17 13:39:25;;;;;;;7.27;6.57;;;12.20;21.30;;;;;;6119697;23;20177;-78
2023/02/17 13:41:53;;;;;;;6.57;5.90;;;12.20;99.90;;;;;;6100085;23;20184;-77
2023/02/17 13:44:28;;;;;;;7.90;7.10;;;12.00;99.90;;;;;;6094008;23;20582;-78
2023/02/17 13:47:13;;;;;;;7.43;6.60;;;12.30;15.60;;;;;;6095440;23;20206;-79
2023/02/17 13:49:39;;;;;;;6.97;6.38;;;12.40;16.20;;;;;;6121228;23;20830;-78
2023/02/17 13:52:20;;;;;;;8.63;7.70;;;12.30;16.90;;;;;;6094519;23;20218;-80
2023/02/17 13:54:52;;;;;;;8.65;7.22;;;12.20;19.80;;;;;;6116795;23;20224;-78
2023/02/17 13:57:30;;;;;;;9.30;8.40;;;12.20;18.70;;;;;;6114324;23;20179;-78
2023/02/17 14:00:12;;;;;;;8.52;7.38;;;12.20;21.10;;;;;;6115875;23;20371;-77
2023/02/17 14:02:46;;;;;;;10.00;8.63;;;12.20;18.60;;;;;;6089497;23;20200;-78
2023/02/17 14:05:23;;;;;;;9.25;8.35;;;12.10;41.90;;;;;;6115127;23;20137;-79
2023/02/17 14:07:49;;;;;;;12.43;10.30;;;11.60;1.00;;;;;;6114323;23;20136;-78
2023/02/17 14:10:24;;;;;;;11.32;10.02;;;12.00;99.90;;;;;;6113533;23;20190;-80
2023/02/17 14:12:52;;;;;;;12.68;10.80;;;11.80;99.90;;;;;;6088217;23;20152;-78
2023/02/17 14:15:22;;;;;;;13.53;11.20;;;11.80;99.90;;;;;;6116601;23;20168;-81
2023/02/17 14:17:48;;;;;;;12.77;11.30;;;11.80;99.90;;;;;;6115304;23;20483;-80
2023/02/17 14:20:35;;;;;;;14.10;12.63;;;11.60;99.90;;;;;;6114898;23;20169;-79
2023/02/17 14:23:14;;;;;;;14.03;12.70;;;11.70;1.00;;;;;;6087548;23;20834;-79
2023/02/17 14:25:45;;;;;;;13.83;12.43;;;11.40;99.90;;;;;;6087671;23;20952;-78
2023/02/17 14:28:22;;;;;;;15.47;13.90;;;11.50;99.90;;;;;;6089928;23;20145;-79
2023/02/17 14:30:49;;;;;;;15.27;13.77;;;;;;;;;;6116856;23;20620;-80
2023/02/17 14:33:17;;;;;;;14.85;13.55;;;11.50;99.90;;;;;;6117493;23;20148;-78
2023/02/17 14:35:49;;;;;;;15.23;13.75;;;11.30;99.90;;;;;;6093452;23;20156;-78
2023/02/17 14:38:25;;;;;;;14.55;13.18;;;11.40;99.90;;;;;;6092542;23;20172;-79
2023/02/17 14:40:52;;;;;;;15.50;14.10;;;11.30;99.90;;;;;;6090106;23;20191;-78
2023/02/17 14:43:19;;;;;;;14.33;13.03;;;;;;;;;;6094185;23;20215;-81
2023/02/17 14:45:45;;;;;;;13.77;12.47;;;;;;;;;;6117379;23;20210;-83
2023/02/17 14:48:16;;;;;;;14.83;13.53;;;11.40;99.90;;;;;;6117664;23;20200;-79
2023/02/17 14:50:43;;;;;;;13.80;12.57;;;11.30;99.90;;;;;;6090976;23;20188;-79
2023/02/17 14:53:31;;;;;;;14.00;12.77;;;11.30;99.90;;;;;;6091254;23;20601;-79
2023/02/17 14:56:45;;;;;;;13.40;12.13;;;11.40;99.90;;;;;;6113434;23;20670;-82
2023/02/17 14:59:11;;;;;;;13.13;11.93;;;;;;;;;;6065643;23;20787;-81
2023/02/17 15:01:37;;;;;;;14.47;13.13;;;11.20;99.90;;;;;;6115648;23;20184;-80
2023/02/17 15:04:03;;;;;;;14.13;12.73;;;;;;;;;;6094347;23;20176;-78
2023/02/17 15:06:35;;;;;;;14.13;12.83;;;11.00;1.00;;;;;;6116143;23;20655;-84
2023/02/17 15:09:01;;;;;;;13.30;12.00;;;;;;;;;;6093604;23;20152;-80
2023/02/17 15:11:30;;;;;;;14.50;13.10;;;11.10;1.00;;;;;;6115887;23;20206;-79
2023/02/17 15:13:56;;;;;;;14.60;13.10;;;;;;;;;;6092134;23;20161;-80
2023/02/17 15:16:22;;;;;;;14.30;12.90;;;;;;;;;;6114439;23;20168;-79
2023/02/17 15:18:49;;;;;;;14.97;13.13;;;;;;;;;;6114587;23;20169;-79
2023/02/17 15:21:18;;;;;;;12.97;11.67;;;;;;;;;;6116875;23;20192;-79
2023/02/17 15:23:44;;;;;;;12.33;11.07;;;11.10;99.90;;;;;;6122620;23;20176;-79
2023/02/17 15:26:11;;;;;;;11.83;10.27;;;;;;;;;;6093591;23;20180;-79
2023/02/17 15:28:37;;;;;;;12.47;9.97;;;;;;;;;;6123278;23;20584;-81
2023/02/17 15:31:03;;;;;;;11.23;10.07;;;;;;;;;;6126419;23;20203;-80
2023/02/17 15:33:29;;;;;;;9.90;8.90;;;;;;;;;;6123092;23;20219;-79
2023/02/17 15:35:55;;;;;;;9.17;8.27;;;;;;;;;;6089535;23;20164;-77
2023/02/17 15:38:21;;;;;;;8.60;7.70;;;;;;;;;;6094022;23;20164;-79
2023/02/17 15:40:47;;;;;;;8.13;7.33;;;;;;;;;;6091730;23;20180;-80
2023/02/17 15:43:20;;;;;;;8.07;6.90;;;10.80;99.90;;;;;;6093385;23;20302;-81
2023/02/17 15:45:46;;;;;;;6.97;6.20;;;;;;;;;;6092481;23;20156;-79
2023/02/17 15:48:20;;;;;;;7.23;6.20;;;10.70;99.90;;;;;;6091871;23;20252;-79
2023/02/17 15:50:46;;;;;;;7.13;6.43;;;10.80;99.90;;;;;;6091371;23;20263;-82
2023/02/17 15:53:12;;;;;;;7.10;6.17;;;;;;;;;;6090746;23;20189;-79
2023/02/17 15:55:39;;;;;;;7.37;6.43;;;10.80;1.00;;;;;;6094705;23;20152;-78
2023/02/17 15:58:09;;;;;;;6.73;5.97;;;10.80;1.00;;;;;;6094388;23;20167;-80
2023/02/17 16:00:35;;;;;;;5.67;5.17;;;;;;;;;;6095385;23;20191;-81
2023/02/17 16:03:01;;;;;;;5.83;5.20;;;;;;;;;;6089921;23;20639;-80
2023/02/17 16:05:28;;;;;;;6.47;5.43;;;10.70;1.00;;;;;;6083638;23;20487;-82
2023/02/17 16:07:55;;;;;;;6.87;5.83;;;;;;;;;;6086721;23;20650;-79
2023/02/17 16:10:23;;;;;;;6.20;5.60;;;10.70;1.00;;;;;;6112895;23;20168;-79
2023/02/17 16:12:50;;;;;;;5.77;4.87;;;10.60;1.00;;;;;;6113775;23;20153;-81
2023/02/17 16:15:21;;;;;;;6.03;5.43;;;10.70;1.00;;;;;;6112652;23;20173;-81
2023/02/17 16:17:48;;;;;;;7.97;5.40;;;10.60;1.00;;;;;;6112167;23;20164;-80
2023/02/17 16:20:25;;;;;;;5.33;4.83;;;10.70;1.00;;;;;;6084752;23;20173;-81
2023/02/17 16:22:51;;;;;;;6.07;5.27;;;10.70;1.00;;;;;;6085777;23;20190;-81
2023/02/17 16:25:19;;;;;;;5.97;5.37;;;10.70;1.00;;;;;;6110923;23;20147;-81
2023/02/17 16:27:46;;;;;;;7.60;6.83;;;10.70;1.00;;;;;;6112637;23;20210;-81
2023/02/17 16:30:18;;;;;;;8.97;5.67;;;10.60;1.00;;;;;;6086912;23;20192;-81
2023/02/17 16:32:44;;;;;;;6.67;5.33;;;10.60;1.00;;;;;;6089645;23;20183;-80
2023/02/17 16:35:18;;;;;;;5.13;4.63;;;10.50;1.00;;;;;;6113918;23;20207;-80
2023/02/17 16:37:55;;;;;;;5.67;5.00;;;10.50;1.00;;;;;;6114259;23;20178;-80
2023/02/17 16:40:24;;;;;;;5.07;4.53;;;10.40;1.00;;;;;;6112494;23;20176;-80
2023/02/17 16:42:50;;;;;;;5.07;4.57;;;10.50;1.00;;;;;;6111341;23;20569;-81
2023/02/17 16:45:25;;;;;;;5.10;4.60;;;10.50;1.00;;;;;;6085333;23;20236;-80
2023/02/17 16:47:53;;;;;;;5.13;4.30;;;10.40;1.00;;;;;;6112970;23;20156;-78
2023/02/17 16:50:25;;;;;;;6.20;4.63;;;10.40;1.00;;;;;;6087647;23;20225;-80
2023/02/17 16:52:56;;;;;;;4.67;4.27;;;10.50;1.00;;;;;;6117594;23;20157;-81
2023/02/17 16:55:23;;;;;;;5.78;5.22;;;10.60;99.90;;;;;;6087031;23;20711;-80
2023/02/17 16:57:49;;;;;;;6.83;4.47;;;10.40;99.90;;;;;;6063248;23;20179;-79
2023/02/17 17:00:19;;;;;;;7.47;5.33;;;10.70;99.90;;;;;;6089402;23;20157;-80
2023/02/17 17:02:46;;;;;;;5.30;4.43;;;10.60;99.90;;;;;;6114371;23;20192;-80
2023/02/17 17:05:12;;;;;;;5.60;4.70;;;10.60;99.90;;;;;;6087231;23;20984;-79
2023/02/17 17:07:39;;;;;;;5.97;5.03;;;10.60;99.90;;;;;;6113854;23;20153;-79
2023/02/17 17:10:14;;;;;;;5.53;4.73;;;10.60;99.90;;;;;;6113163;23;20149;-79
2023/02/17 17:12:40;;;;;;;5.03;4.40;;;10.50;99.90;;;;;;6114520;23;20156;-79
2023/02/17 17:15:07;;;;;;;5.93;5.20;;;10.60;99.90;;;;;;6114063;23;20753;-79
2023/02/17 17:17:46;;;;;;;5.90;5.30;;;10.50;99.90;;;;;;6114036;23;20153;-80
2023/02/17 17:20:15;;;;;;;7.63;4.87;;;10.50;99.90;;;;;;6085128;23;20168;-80
2023/02/17 17:22:41;;;;;;;6.20;5.43;;;10.50;99.90;;;;;;6087671;23;20246;-79
2023/02/17 17:25:07;;;;;;;6.33;5.73;;;11.00;1.00;;;;;;6086507;23;20152;-79
2023/02/17 17:27:34;;;;;;;7.57;5.57;;;;;;;;;;6115697;23;20321;-79
2023/02/17 17:30:00;;;;;;;6.73;5.93;;;10.00;99.90;;;;;;6115667;23;20157;-79
2023/02/17 17:32:25;;;;;;;8.27;7.27;;;10.10;1.00;;;;;;6117181;23;20157;-79
2023/02/17 17:34:51;;;;;;;7.93;7.13;;;10.10;1.00;;;;;;6116531;23;20172;-81
2023/02/17 17:37:17;;;;;;;9.47;6.60;;;10.10;1.00;;;;;;6118545;23;20228;-78
2023/02/17 17:39:43;;;;;;;7.30;6.43;;;10.10;99.90;;;;;;6117848;23;20215;-80
2023/02/17 17:42:14;;;;;;;9.03;7.30;;;10.10;1.00;;;;;;6091798;23;20185;-79
2023/02/17 17:44:40;;;;;;;7.77;6.70;;;10.10;1.00;;;;;;6091097;23;20153;-79
2023/02/17 17:47:10;;;;;;;8.10;6.83;;;11.00;48.80;;;;;;6116806;23;20240;-79
2023/02/17 17:49:36;;;;;;;7.27;6.13;;;10.10;1.00;;;;;;6118172;23;20141;-79
2023/02/17 17:52:01;;;;;;;7.00;6.30;;;10.00;1.00;;;;;;6118246;23;20224;-80
2023/02/17 17:54:27;;;;;;;11.13;6.70;;;10.10;1.00;;;;;;6091560;23;20680;-79
2023/02/17 17:56:53;;;;;;;7.67;5.80;;;10.20;1.00;;;;;;6117292;23;20152;-79
2023/02/17 17:59:18;;;;;;;7.50;6.10;;;10.20;1.00;;;;;;6118350;23;20180;-78
2023/02/17 18:01:44;;;;;;;6.70;5.53;;;10.40;1.00;;;;;;6117390;23;20251;-79
2023/02/17 18:04:09;;;;;;;6.60;5.87;;;10.20;99.90;;;;;;6118024;23;20191;-79
2023/02/17 18:06:46;;;;;;;6.80;5.73;;;10.20;1.00;;;;;;6118215;23;20183;-79
2023/02/17 18:09:16;;;;;;;6.83;6.03;;;10.30;99.90;;;;;;6118171;23;20175;-79
2023/02/17 18:11:43;;;;;;;6.60;5.37;;;10.30;99.90;;;;;;6091791;23;20176;-79
2023/02/17 18:14:10;;;;;;;7.00;5.57;;;10.50;99.90;;;;;;6092271;23;20172;-80
2023/02/17 18:16:37;;;;;;;6.23;5.17;;;10.50;99.90;;;;;;6088155;23;20164;-79
2023/02/17 18:19:05;;;;;;;6.33;5.10;;;10.80;99.90;;;;;;6116337;23;20156;-79
2023/02/17 18:21:32;;;;;;;5.70;4.77;;;10.50;99.90;;;;;;6093487;23;20206;-80
2023/02/17 18:23:57;;;;;;;7.57;4.70;;;10.60;99.90;;;;;;6092765;23;20704;-79
2023/02/17 18:26:23;;;;;;;6.50;4.90;;;10.60;99.90;;;;;;6091007;23;20183;-78
2023/02/17 18:28:48;;;;;;;5.70;4.90;;;12.40;99.90;;;;;;6094022;23;20160;-78
2023/02/17 18:31:15;;;;;;;9.23;5.00;;;11.80;99.90;;;;;;6094744;23;20185;-78
2023/02/17 18:33:42;;;;;;;13.73;10.23;;;10.40;99.90;;;;;;6088298;23;20225;-82
2023/02/17 18:36:12;;;;;;;7.77;6.30;;;10.50;99.90;;;;;;6085184;23;20187;-77
2023/02/17 18:38:38;;;;;;;8.20;6.30;;;10.40;99.90;;;;;;6111580;23;20236;-80
2023/02/17 18:41:04;;;;;;;7.97;6.80;;;10.10;1.00;;;;;;6113339;23;20212;-79
2023/02/17 18:43:30;;;;;;;7.80;6.63;;;9.90;99.90;;;;;;6087106;23;20187;-80
2023/02/17 18:45:55;;;;;;;9.37;6.83;;;9.80;1.00;;;;;;6086276;23;20184;-81
2023/02/17 18:48:21;;;;;;;7.60;6.40;;;9.70;43.70;;;;;;6113963;23;20159;-80
2023/02/17 18:50:46;;;;;;;6.43;5.70;;;9.70;99.90;;;;;;6088274;23;20180;-79
2023/02/17 18:53:14;;;;;;;9.03;5.30;;;9.60;99.90;;;;;;6087901;23;20169;-81
2023/02/17 18:55:40;;;;;;;8.27;5.53;;;9.50;40.60;;;;;;6113740;23;20179;-79
2023/02/17 18:58:05;;;;;;;9.97;5.30;;;9.40;1.00;;;;;;6087396;23;20229;-83
2023/02/17 19:00:31;;;;;;;10.37;4.90;;;9.30;1.00;;;;;;6088133;23;20689;-80
2023/02/17 19:02:57;;;;;;;10.47;4.27;;;9.20;1.00;;;;;;6095089;23;20184;-77
2023/02/17 19:05:25;;;;;;;6.73;3.27;;;9.20;1.00;;;;;;6089620;23;20160;-82
2023/02/17 19:07:51;;;;;;;7.03;3.30;;;9.10;1.00;;;;;;6087772;23;20161;-81
2023/02/17 19:10:17;;;;;;;8.33;3.17;;;10.00;1.00;;;;;;6087853;23;20165;-78
2023/02/17 19:12:42;;;;;;;5.37;2.90;;;9.10;1.00;;;;;;6086139;23;20581;-80
2023/02/17 19:15:08;;;;;;;6.10;2.90;;;9.00;1.00;;;;;;6088491;23;20172;-79
2023/02/17 19:17:34;;;;;;;10.70;3.20;;;9.00;99.90;;;;;;6087880;23;20172;-81
2023/02/17 19:19:59;;;;;;;7.70;3.17;;;8.90;99.90;;;;;;6087320;23;20214;-78
2023/02/17 19:22:25;;;;;;;8.13;3.70;;;8.90;99.90;;;;;;6092665;23;20382;-78
2023/02/17 19:24:53;;;;;;;9.43;3.90;;;8.80;99.90;;;;;;6098214;23;20160;-79
2023/02/17 19:27:19;;;;;;;9.20;3.53;;;8.90;99.90;;;;;;6093136;23;20156;-78
2023/02/17 19:29:45;;;;;;;7.43;3.70;;;8.90;99.90;;;;;;6087949;23;20164;-82
2023/02/17 19:32:11;;;;;;;7.20;3.50;;;8.80;99.90;;;;;;6113699;23;20266;-78
2023/02/17 19:34:39;;;;;;;7.87;3.60;;;8.80;99.90;;;;;;6088357;23;20173;-82
2023/02/17 19:37:04;;;;;;;6.30;3.37;;;9.00;99.90;;;;;;6113986;23;20149;-80
2023/02/17 19:39:30;;;;;;;9.20;3.40;;;8.80;99.90;;;;;;6112663;23;20211;-79
2023/02/17 19:41:56;;;;;;;8.40;3.50;;;8.80;99.90;;;;;;6088130;23;20246;-79
2023/02/17 19:44:21;;;;;;;8.73;2.70;;;8.70;99.90;;;;;;6085347;23;20195;-78
2023/02/17 19:46:47;;;;;;;6.10;2.73;;;8.70;99.90;;;;;;6112942;23;20179;-81
2023/02/17 19:49:13;;;;;;;6.37;2.30;;;8.80;99.90;;;;;;6112692;23;20143;-80
2023/02/17 19:51:39;;;;;;;4.90;2.20;;;8.70;82.90;;;;;;6085725;23;20184;-80
2023/02/17 19:54:04;;;;;;;6.03;2.20;;;8.60;92.80;;;;;;6085480;23;20198;-80
2023/02/17 19:56:32;;;;;;;7.40;2.67;;;9.60;79.40;;;;;;6111835;23;20192;-78
2023/02/17 19:58:58;;;;;;;9.00;2.60;;;8.50;78.90;;;;;;6113154;23;20679;-81
2023/02/17 20:01:30;;;;;;;6.20;1.63;;;8.40;43.00;;;;;;6086795;23;20535;-78
2023/02/17 20:03:57;;;;;;;5.73;1.80;;;9.50;23.50;;;;;;6087175;23;20260;-78
2023/02/17 20:06:28;;;;;;;7.33;2.23;;;9.70;8.20;;;;;;6086771;23;20572;-77
2023/02/17 20:08:57;;;;;;;5.70;1.90;;;8.20;9.20;;;;;;6113417;23;20195;-78
2023/02/17 20:11:23;;;;;;;3.73;1.53;;;8.20;6.20;;;;;;6087450;23;20187;-79
2023/02/17 20:13:49;;;;;;;5.50;1.90;;;6.90;7.50;;;;;;6085925;23;20165;-78
2023/02/17 20:16:16;;;;;;;5.70;1.70;;;8.00;12.50;;;;;;6087719;23;20168;-78
2023/02/17 20:18:44;;;;;;;3.77;1.43;;;8.00;3.10;;;;;;6114313;23;20168;-78
2023/02/17 20:21:12;;;;;;;4.10;1.87;;;7.90;1.00;;;;;;6088413;23;20185;-80
2023/02/17 20:23:37;;;;;;;6.07;2.00;;;7.80;2.70;;;;;;6087312;23;20192;-84
2023/02/17 20:26:07;;;;;;;3.87;1.67;;;7.70;4.60;;;;;;6087951;23;20175;-78
2023/02/17 20:28:33;;;;;;;6.67;2.57;;;7.70;1.00;;;;;;6088631;23;20153;-78
2023/02/17 20:30:59;;;;;;;6.30;1.97;;;7.70;1.00;;;;;;6088102;23;20184;-80
2023/02/17 20:33:25;;;;;;;7.33;2.47;;;7.70;1.00;;;;;;6112505;23;20188;-79
2023/02/17 20:35:50;;;;;;;10.10;5.97;;;7.70;1.00;;;;;;6087457;23;20194;-78
2023/02/17 20:38:16;;;;;;;6.57;1.80;;;7.60;1.00;;;;;;6113158;23;20156;-77
2023/02/17 20:40:42;;;;;;;7.93;1.87;;;7.50;1.00;;;;;;6112983;23;20186;-78
2023/02/17 20:43:11;;;;;;;7.17;1.87;;;7.50;1.90;;;;;;6086394;23;20659;-80
2023/02/17 20:45:40;;;;;;;5.20;1.93;;;7.40;1.00;;;;;;6086433;23;20983;-77
2023/02/17 20:48:07;;;;;;;8.57;2.30;;;7.40;2.40;;;;;;6086692;23;20160;-80
2023/02/17 20:50:32;;;;;;;6.23;1.70;;;7.30;14.80;;;;;;6088805;23;20240;-80
2023/02/17 20:52:58;;;;;;;8.60;2.20;;;7.30;18.10;;;;;;6087474;23;20200;-78
2023/02/17 20:55:25;;;;;;;7.50;2.03;;;7.20;26.20;;;;;;6087750;23;20620;-83
2023/02/17 20:57:51;;;;;;;6.27;2.17;;;7.20;45.00;;;;;;6087542;23;20574;-78
2023/02/17 21:00:20;;;;;;;6.33;2.13;;;7.10;64.10;;;;;;6114164;23;20163;-78
2023/02/17 21:02:45;;;;;;;9.73;2.00;;;7.20;80.40;;;;;;6087480;23;20180;-78
2023/02/17 21:05:11;;;;;;;5.90;1.50;;;7.10;89.80;;;;;;6114313;23;20850;-81
2023/02/17 21:07:37;;;;;;;3.47;1.47;;;7.40;76.30;;;;;;6115049;23;20142;-78
2023/02/17 21:10:12;;;;;;;11.60;2.00;;;7.20;75.10;;;;;;6088072;23;20165;-80
2023/02/17 21:12:37;;;;;;;7.03;1.80;;;7.20;59.10;;;;;;6112807;23;20151;-77
2023/02/17 21:15:03;;;;;;;10.87;2.33;;;7.20;51.50;;;;;;6087970;23;20160;-79
2023/02/17 21:17:29;;;;;;;6.50;1.90;;;7.20;42.90;;;;;;6113763;23;20217;-79
2023/02/17 21:19:54;;;;;;;8.13;1.87;;;7.20;42.00;;;;;;6089040;23;20203;-79
2023/02/17 21:22:20;;;;;;;6.20;2.40;;;7.10;43.60;;;;;;6089159;23;20196;-78
2023/02/17 21:24:46;;;;;;;6.03;2.20;;;7.10;43.40;;;;;;6090045;23;20157;-79
2023/02/17 21:27:11;;;;;;;6.37;2.10;;;7.10;44.90;;;;;;6116339;23;20243;-78
2023/02/17 21:29:37;;;;;;;6.20;2.40;;;7.10;43.10;;;;;;6115621;23;20182;-79
2023/02/17 21:32:03;;;;;;;9.47;1.97;;;7.10;51.60;;;;;;6115536;23;20645;-79
2023/02/17 21:34:29;;;;;;;6.33;2.47;;;7.10;38.40;;;;;;6089570;23;20607;-80
2023/02/17 21:36:54;;;;;;;5.70;1.50;;;7.20;30.00;;;;;;6116864;23;20176;-78
2023/02/17 21:39:20;;;;;;;5.43;1.70;;;7.20;10.70;;;;;;6087876;23;20168;-78
2023/02/17 21:41:46;;;;;;;5.77;2.10;;;7.20;1.40;;;;;;6088554;23;20537;-80
2023/02/17 21:46:56;;;;;;;8.50;2.87;;;7.10;1.00;;;;;;6117563;23;20194;-78
2023/02/17 21:49:23;;;;;;;7.90;1.80;;;7.10;1.00;;;;;;6118597;23;20153;-79
2023/02/17 21:51:49;;;;;;;5.27;1.57;;;7.10;1.00;;;;;;6090164;23;20207;-82
2023/02/17 21:54:14;;;;;;;8.47;2.30;;;7.00;1.00;;;;;;6087901;23;20691;-78
2023/02/17 21:56:40;;;;;;;6.00;1.90;;;9.10;1.00;;;;;;6089721;23;20190;-79
2023/02/17 21:59:06;;;;;;;7.20;2.03;;;6.90;1.00;;;;;;6115431;23;20537;-78
2023/02/17 22:01:32;;;;;;;8.33;1.87;;;6.90;1.00;;;;;;6090749;23;20257;-82
2023/02/17 22:03:58;;;;;;;5.73;1.60;;;7.60;1.00;;;;;;6117165;23;20766;-78
2023/02/17 22:06:25;;;;;;;4.60;1.30;;;6.90;1.00;;;;;;6090388;23;20203;-79
2023/02/17 22:08:51;;;;;;;5.37;1.50;;;6.90;1.00;;;;;;6090649;23;20212;-79
2023/02/17 22:11:20;;;;;;;7.03;2.13;;;6.90;1.00;;;;;;6088703;23;20512;-83
2023/02/17 22:13:45;;;;;;;10.43;2.17;;;6.90;1.00;;;;;;6086458;23;20168;-78
2023/02/17 22:16:12;;;;;;;6.83;2.43;;;6.80;1.00;;;;;;6088902;23;20156;-79
2023/02/17 22:18:37;;;;;;;5.20;1.80;;;8.20;1.00;;;;;;6089136;23;20159;-79
2023/02/17 22:21:08;;;;;;;8.50;1.60;;;6.70;1.00;;;;;;6088107;23;20215;-77
2023/02/17 22:23:33;;;;;;;7.47;1.93;;;6.70;1.00;;;;;;6085389;23;20181;-80
2023/02/17 22:25:59;;;;;;;5.43;2.07;;;6.70;1.00;;;;;;6088941;23;20626;-78
2023/02/17 22:28:25;;;;;;;8.43;1.83;;;6.70;1.00;;;;;;6086924;23;20244;-78
2023/02/17 22:30:51;;;;;;;6.40;1.37;;;6.70;1.00;;;;;;6088213;23;20191;-80
2023/02/17 22:33:18;;;;;;;6.73;1.60;;;6.70;1.00;;;;;;6114294;23;20144;-80
2023/02/17 22:35:44;;;;;;;5.60;1.70;;;7.80;1.00;;;;;;6088576;23;20159;-78
2023/02/17 22:38:10;;;;;;;5.60;1.73;;;6.70;1.00;;;;;;6089888;23;20148;-78
2023/02/17 22:40:40;;;;;;;4.50;1.70;;;6.60;1.00;;;;;;6088652;23;20287;-78
2023/02/17 22:43:06;;;;;;;5.00;1.20;;;6.60;1.00;;;;;;6115710;23;20662;-78
2023/02/17 22:45:31;;;;;;;8.70;1.47;;;6.60;1.00;;;;;;6089216;23;20152;-80
2023/02/17 22:47:57;;;;;;;5.87;1.60;;;6.60;1.00;;;;;;6115343;23;20148;-78
2023/02/17 22:50:23;;;;;;;8.03;2.10;;;8.30;1.00;;;;;;6089904;23;20180;-80
2023/02/17 22:52:48;;;;;;;6.03;1.37;;;6.70;1.00;;;;;;6088368;23;20174;-80
2023/02/17 22:55:14;;;;;;;8.63;1.93;;;6.70;1.00;;;;;;6111942;23;20179;-79
2023/02/17 22:57:40;;;;;;;4.57;1.17;;;6.70;1.00;;;;;;6112892;23;20152;-81
2023/02/17 23:00:06;;;;;;;6.43;1.90;;;6.70;1.00;;;;;;6085950;23;20857;-80
2023/02/17 23:02:35;;;;;;;6.97;1.60;;;6.70;1.00;;;;;;6085706;23;20148;-79
2023/02/17 23:05:01;;;;;;;6.30;1.70;;;6.70;1.00;;;;;;6112374;23;20145;-79
2023/02/17 23:07:26;;;;;;;4.30;1.50;;;6.60;1.00;;;;;;6114083;23;20144;-79
2023/02/17 23:09:52;;;;;;;4.60;1.27;;;6.60;1.00;;;;;;6087575;23;20546;-78
2023/02/17 23:12:17;;;;;;;6.13;1.77;;;6.70;1.00;;;;;;6115142;23;20267;-79
2023/02/17 23:14:45;;;;;;;8.23;1.93;;;6.60;1.00;;;;;;6111789;23;20188;-80
2023/02/17 23:17:12;;;;;;;4.80;1.47;;;6.60;1.00;;;;;;6090403;23;20160;-82
2023/02/17 23:19:40;;;;;;;4.03;1.00;;;7.30;1.00;;;;;;6117590;23;20679;-82
2023/02/17 23:22:09;;;;;;;8.07;1.93;;;6.60;1.00;;;;;;6091338;23;20188;-80
2023/02/17 23:24:35;;;;;;;6.20;1.50;;;6.60;1.00;;;;;;6110420;23;20253;-80
2023/02/17 23:27:02;;;;;;;5.70;1.50;;;6.60;1.00;;;;;;6113036;23;20711;-79
2023/02/17 23:29:29;;;;;;;6.17;1.17;;;6.50;1.00;;;;;;6114772;23;20160;-79
2023/02/17 23:31:55;;;;;;;6.60;1.67;;;6.50;1.00;;;;;;6113517;23;20176;-81
2023/02/17 23:34:21;;;;;;;5.27;1.17;;;6.50;1.00;;;;;;6112731;23;20179;-79
2023/02/17 23:36:47;;;;;;;7.33;2.40;;;6.50;1.00;;;;;;6113732;23;20616;-81
2023/02/17 23:39:14;;;;;;;3.30;1.03;;;6.50;99.90;;;;;;6113977;23;20236;-80
2023/02/17 23:41:40;;;;;;;3.87;1.00;;;;;;;;;;6114420;23;20343;-81
2023/02/17 23:44:08;;;;;;;5.27;1.20;;;6.50;99.90;;;;;;6115117;23;20180;-80
2023/02/17 23:46:34;;;;;;;4.60;1.00;;;;;;;;;;6089994;23;20157;-80
2023/02/17 23:49:00;;;;;;;7.77;1.33;;;;;;;;;;6116629;23;20153;-80
2023/02/17 23:51:26;;;;;;;5.13;1.30;;;6.20;1.00;;;;;;6116612;23;20259;-80
2023/02/17 23:53:51;;;;;;;9.33;1.80;;;6.20;1.00;;;;;;6115818;23;20274;-79
2023/02/17 23:56:33;;;;;;;8.17;1.50;;;6.40;99.90;;;;;;6116196;23;20164;-80
2023/02/17 23:58:59;;;;;;;4.17;1.00;;;;;;;;;;6090549;23;20156;-80
